sensor_id;sensor_type;location;lat;lon;timestamp;temperature;humidity
68844;DHT22;55850;51.244;6.824;2022-07-06T00:00:31;18.01;52.77
68844;DHT22;55850;51.244;6.824;2022-07-06T00:05:39;18.20;52.56
68844;DHT22;55850;51.244;6.824;2022-07-06T00:10:45;18.07;52.47
68844;DHT22;55850;51.244;6.824;2022-07-06T00:15:53;18.18;52.20
68844;DHT22;55850;51.244;6.824;2022-07-06T00:20:59;18.04;52.92
68844;DHT22;55850;51.244;6.824;2022-07-06T00:26:04;18.10;52.28
68844;DHT22;55850;51.244;6.824;2022-07-06T00:31:12;18.11;52.93
68844;DHT22;55850;51.244;6.824;2022-07-06T00:36:21;18.31;52.47
68844;DHT22;55850;51.244;6.824;2022-07-06T00:41:26;17.93;53.45
68844;DHT22;55850;51.244;6.824;2022-07-06T00:46:35;18.00;53.25
68844;DHT22;55850;51.244;6.824;2022-07-06T00:51:46;17.79;53.59
68844;DHT22;55850;51.244;6.824;2022-07-06T00:56:51;17.97;53.43
68844;DHT22;55850;51.244;6.824;2022-07-06T01:01:59;17.73;53.90
68844;DHT22;55850;51.244;6.824;2022-07-06T01:07:05;17.83;53.88
68844;DHT22;55850;51.244;6.824;2022-07-06T01:12:10;17.63;54.06
68844;DHT22;55850;51.244;6.824;2022-07-06T01:17:18;17.89;53.71
68844;DHT22;55850;51.244;6.824;2022-07-06T01:22:27;17.59;54.47
68844;DHT22;55850;51.244;6.824;2022-07-06T01:27:33;17.27;55.07
68844;DHT22;55850;51.244;6.824;2022-07-06T01:32:40;17.28;55.32
68844;DHT22;55850;51.244;6.824;2022-07-06T01:37:51;17.28;55.31
68844;DHT22;55850;51.244;6.824;2022-07-06T01:42:57;17.63;54.49
68844;DHT22;55850;51.244;6.824;2022-07-06T01:48:05;17.56;54.84
68844;DHT22;55850;51.244;6.824;2022-07-06T01:53:13;16.94;56.55
68844;DHT22;55850;51.244;6.824;2022-07-06T01:58:19;17.03;56.29
68844;DHT22;55850;51.244;6.824;2022-07-06T02:03:25;17.12;55.89
68844;DHT22;55850;51.244;6.824;2022-07-06T02:08:34;17.21;55.72
68844;DHT22;55850;51.244;6.824;2022-07-06T02:13:39;17.12;55.69
68844;DHT22;55850;51.244;6.824;2022-07-06T02:18:46;16.98;55.95
68844;DHT22;55850;51.244;6.824;2022-07-06T02:23:54;16.77;56.69
68844;DHT22;55850;51.244;6.824;2022-07-06T02:29:00;16.98;56.27
68844;DHT22;55850;51.244;6.824;2022-07-06T02:34:05;17.03;55.98
68844;DHT22;55850;51.244;6.824;2022-07-06T02:39:13;17.03;55.70
68844;DHT22;55850;51.244;6.824;2022-07-06T02:44:19;16.83;56.50
68844;DHT22;55850;51.244;6.824;2022-07-06T02:49:24;16.92;56.32
68844;DHT22;55850;51.244;6.824;2022-07-06T02:54:32;16.90;56.51
68844;DHT22;55850;51.244;6.824;2022-07-06T02:59:38;16.98;56.34
68844;DHT22;55850;51.244;6.824;2022-07-06T03:04:43;17.22;55.77
68844;DHT22;55850;51.244;6.824;2022-07-06T03:09:53;16.90;56.94
68844;DHT22;55850;51.244;6.824;2022-07-06T03:14:58;17.14;56.32
68844;DHT22;55850;51.244;6.824;2022-07-06T03:20:07;16.92;56.71
68844;DHT22;55850;51.244;6.824;2022-07-06T03:25:16;16.90;57.24
68844;DHT22;55850;51.244;6.824;2022-07-06T03:30:23;17.08;56.25
68844;DHT22;55850;51.244;6.824;2022-07-06T03:35:30;16.64;57.76
68844;DHT22;55850;51.244;6.824;2022-07-06T03:40:40;16.76;57.74
68844;DHT22;55850;51.244;6.824;2022-07-06T03:45:46;16.73;57.47
68844;DHT22;55850;51.244;6.824;2022-07-06T03:50:52;16.85;57.19
68844;DHT22;55850;51.244;6.824;2022-07-06T03:56:01;16.76;57.77
68844;DHT22;55850;51.244;6.824;2022-07-06T04:01:20;16.63;58.37
68844;DHT22;55850;51.244;6.824;2022-07-06T04:06:25;16.80;57.81
68844;DHT22;55850;51.244;6.824;2022-07-06T04:11:37;16.67;58.17
68844;DHT22;55850;51.244;6.824;2022-07-06T04:16:43;16.50;58.34
68844;DHT22;55850;51.244;6.824;2022-07-06T04:21:53;16.95;57.38
68844;DHT22;55850;51.244;6.824;2022-07-06T04:27:02;16.98;58.03
68844;DHT22;55850;51.244;6.824;2022-07-06T04:32:07;17.04;57.73
68844;DHT22;55850;51.244;6.824;2022-07-06T04:37:13;17.01;57.18
68844;DHT22;55850;51.244;6.824;2022-07-06T04:42:24;17.62;56.24
68844;DHT22;55850;51.244;6.824;2022-07-06T04:47:32;17.77;55.46
68844;DHT22;55850;51.244;6.824;2022-07-06T04:52:38;18.17;54.35
68844;DHT22;55850;51.244;6.824;2022-07-06T04:57:48;17.99;54.91
68844;DHT22;55850;51.244;6.824;2022-07-06T05:02:57;18.57;53.87
68844;DHT22;55850;51.244;6.824;2022-07-06T05:08:03;19.36;51.89
68844;DHT22;55850;51.244;6.824;2022-07-06T05:13:12;19.37;51.97
68844;DHT22;55850;51.244;6.824;2022-07-06T05:18:18;19.84;50.49
68844;DHT22;55850;51.244;6.824;2022-07-06T05:23:25;20.14;49.33
68844;DHT22;55850;51.244;6.824;2022-07-06T05:28:35;20.45;49.72
68844;DHT22;55850;51.244;6.824;2022-07-06T05:33:44;20.79;48.43
68844;DHT22;55850;51.244;6.824;2022-07-06T05:38:49;21.12;47.30
68844;DHT22;55850;51.244;6.824;2022-07-06T05:43:57;21.15;47.00
68844;DHT22;55850;51.244;6.824;2022-07-06T05:49:05;20.52;48.12
68844;DHT22;55850;51.244;6.824;2022-07-06T05:54:23;22.00;46.40
68844;DHT22;55850;51.244;6.824;2022-07-06T05:59:32;22.25;44.87
68844;DHT22;55850;51.244;6.824;2022-07-06T06:04:37;22.91;44.57
68844;DHT22;55850;51.244;6.824;2022-07-06T06:09:44;22.50;44.98
68844;DHT22;55850;51.244;6.824;2022-07-06T06:14:53;22.23;45.10
68844;DHT22;55850;51.244;6.824;2022-07-06T06:19:59;21.72;45.73
68844;DHT22;55850;51.244;6.824;2022-07-06T06:25:05;21.55;46.10
68844;DHT22;55850;51.244;6.824;2022-07-06T06:30:16;22.06;45.76
68844;DHT22;55850;51.244;6.824;2022-07-06T06:35:21;21.85;45.65
68844;DHT22;55850;51.244;6.824;2022-07-06T06:40:27;22.14;45.27
68844;DHT22;55850;51.244;6.824;2022-07-06T06:45:35;22.72;44.76
68844;DHT22;55850;51.244;6.824;2022-07-06T06:50:40;22.00;45.39
68844;DHT22;55850;51.244;6.824;2022-07-06T06:55:46;21.49;45.93
68844;DHT22;55850;51.244;6.824;2022-07-06T07:00:54;21.05;46.05
68844;DHT22;55850;51.244;6.824;2022-07-06T07:05:59;20.73;47.01
68844;DHT22;55850;51.244;6.824;2022-07-06T07:11:05;20.46;48.45
68844;DHT22;55850;51.244;6.824;2022-07-06T07:16:13;20.62;47.77
68844;DHT22;55850;51.244;6.824;2022-07-06T07:21:19;20.57;47.44
68844;DHT22;55850;51.244;6.824;2022-07-06T07:26:24;20.54;47.18
68844;DHT22;55850;51.244;6.824;2022-07-06T07:31:32;20.54;47.85
68844;DHT22;55850;51.244;6.824;2022-07-06T07:36:38;20.84;46.81
68844;DHT22;55850;51.244;6.824;2022-07-06T07:41:43;20.91;47.12
68844;DHT22;55850;51.244;6.824;2022-07-06T07:46:57;20.60;46.68
68844;DHT22;55850;51.244;6.824;2022-07-06T07:52:03;21.12;45.64
68844;DHT22;55850;51.244;6.824;2022-07-06T07:57:09;21.30;45.41
68844;DHT22;55850;51.244;6.824;2022-07-06T08:02:17;21.51;45.14
68844;DHT22;55850;51.244;6.824;2022-07-06T08:07:23;21.48;45.33
68844;DHT22;55850;51.244;6.824;2022-07-06T08:12:28;21.62;44.94
68844;DHT22;55850;51.244;6.824;2022-07-06T08:17:37;21.79;44.99
68844;DHT22;55850;51.244;6.824;2022-07-06T08:22:43;21.75;44.24
68844;DHT22;55850;51.244;6.824;2022-07-06T08:27:48;22.10;44.05
68844;DHT22;55850;51.244;6.824;2022-07-06T08:32:59;22.03;44.30
68844;DHT22;55850;51.244;6.824;2022-07-06T08:38:12;22.87;42.47
68844;DHT22;55850;51.244;6.824;2022-07-06T08:43:18;22.85;41.11
68844;DHT22;55850;51.244;6.824;2022-07-06T08:48:27;22.73;41.58
68844;DHT22;55850;51.244;6.824;2022-07-06T08:53:33;23.00;41.59
68844;DHT22;55850;51.244;6.824;2022-07-06T08:58:38;23.06;41.44
68844;DHT22;55850;51.244;6.824;2022-07-06T09:03:49;23.75;39.56
68844;DHT22;55850;51.244;6.824;2022-07-06T09:08:56;23.08;40.39
68844;DHT22;55850;51.244;6.824;2022-07-06T09:14:05;22.09;40.76
68844;DHT22;55850;51.244;6.824;2022-07-06T09:19:13;22.21;40.32
68844;DHT22;55850;51.244;6.824;2022-07-06T09:24:19;24.14;38.12
68844;DHT22;55850;51.244;6.824;2022-07-06T09:29:28;22.47;40.49
68844;DHT22;55850;51.244;6.824;2022-07-06T09:34:43;22.79;39.91
68844;DHT22;55850;51.244;6.824;2022-07-06T09:39:49;22.41;38.40
68844;DHT22;55850;51.244;6.824;2022-07-06T09:44:55;24.46;36.80
68844;DHT22;55850;51.244;6.824;2022-07-06T09:50:05;26.14;35.26
68844;DHT22;55850;51.244;6.824;2022-07-06T09:55:14;25.25;36.53
68844;DHT22;55850;51.244;6.824;2022-07-06T10:00:21;24.46;38.40
68844;DHT22;55850;51.244;6.824;2022-07-06T10:05:31;24.33;38.02
68844;DHT22;55850;51.244;6.824;2022-07-06T10:10:38;23.70;38.66
68844;DHT22;55850;51.244;6.824;2022-07-06T10:15:44;24.36;36.54
68844;DHT22;55850;51.244;6.824;2022-07-06T10:20:52;25.30;36.29
68844;DHT22;55850;51.244;6.824;2022-07-06T10:25:58;24.25;37.37
68844;DHT22;55850;51.244;6.824;2022-07-06T10:31:03;24.56;37.77
68844;DHT22;55850;51.244;6.824;2022-07-06T10:36:12;24.65;37.26
68844;DHT22;55850;51.244;6.824;2022-07-06T10:41:30;24.86;36.85
68844;DHT22;55850;51.244;6.824;2022-07-06T10:46:36;26.19;35.39
68844;DHT22;55850;51.244;6.824;2022-07-06T10:51:44;25.02;36.22
68844;DHT22;55850;51.244;6.824;2022-07-06T10:56:51;25.75;35.18
68844;DHT22;55850;51.244;6.824;2022-07-06T11:02:13;24.87;36.33
68844;DHT22;55850;51.244;6.824;2022-07-06T11:07:22;24.25;37.45
68844;DHT22;55850;51.244;6.824;2022-07-06T11:12:27;23.67;38.02
68844;DHT22;55850;51.244;6.824;2022-07-06T11:17:32;25.11;36.34
68844;DHT22;55850;51.244;6.824;2022-07-06T11:22:40;25.58;35.88
68844;DHT22;55850;51.244;6.824;2022-07-06T11:27:46;25.71;34.71
68844;DHT22;55850;51.244;6.824;2022-07-06T11:32:52;25.35;35.34
68844;DHT22;55850;51.244;6.824;2022-07-06T11:38:24;24.51;36.92
68844;DHT22;55850;51.244;6.824;2022-07-06T11:43:30;24.40;37.36
68844;DHT22;55850;51.244;6.824;2022-07-06T11:48:36;24.96;37.38
68844;DHT22;55850;51.244;6.824;2022-07-06T11:53:46;26.23;35.49
68844;DHT22;55850;51.244;6.824;2022-07-06T11:58:58;25.24;37.22
68844;DHT22;55850;51.244;6.824;2022-07-06T12:04:04;25.62;36.21
68844;DHT22;55850;51.244;6.824;2022-07-06T12:09:12;24.93;36.77
68844;DHT22;55850;51.244;6.824;2022-07-06T12:14:19;24.05;37.67
68844;DHT22;55850;51.244;6.824;2022-07-06T12:19:25;24.08;38.73
68844;DHT22;55850;51.244;6.824;2022-07-06T12:24:34;24.09;38.16
68844;DHT22;55850;51.244;6.824;2022-07-06T12:29:40;24.30;38.56
68844;DHT22;55850;51.244;6.824;2022-07-06T12:34:46;24.88;38.41
68844;DHT22;55850;51.244;6.824;2022-07-06T12:39:54;24.48;38.83
68844;DHT22;55850;51.244;6.824;2022-07-06T12:45:00;24.83;38.38
68844;DHT22;55850;51.244;6.824;2022-07-06T12:50:07;24.63;38.28
68844;DHT22;55850;51.244;6.824;2022-07-06T12:55:15;24.76;39.00
68844;DHT22;55850;51.244;6.824;2022-07-06T13:00:21;24.29;38.07
68844;DHT22;55850;51.244;6.824;2022-07-06T13:05:26;24.36;38.57
68844;DHT22;55850;51.244;6.824;2022-07-06T13:10:36;24.18;39.16
68844;DHT22;55850;51.244;6.824;2022-07-06T13:15:44;24.30;39.40
68844;DHT22;55850;51.244;6.824;2022-07-06T13:20:49;24.56;38.49
68844;DHT22;55850;51.244;6.824;2022-07-06T13:25:57;24.12;38.72
68844;DHT22;55850;51.244;6.824;2022-07-06T13:31:03;24.07;38.99
68844;DHT22;55850;51.244;6.824;2022-07-06T13:36:13;24.18;38.04
68844;DHT22;55850;51.244;6.824;2022-07-06T13:41:21;24.18;38.03
68844;DHT22;55850;51.244;6.824;2022-07-06T13:46:27;24.18;38.95
68844;DHT22;55850;51.244;6.824;2022-07-06T13:51:33;24.24;38.84
68844;DHT22;55850;51.244;6.824;2022-07-06T13:56:41;24.30;38.14
68844;DHT22;55850;51.244;6.824;2022-07-06T14:01:46;24.33;37.63
68844;DHT22;55850;51.244;6.824;2022-07-06T14:06:52;24.38;37.13
68844;DHT22;55850;51.244;6.824;2022-07-06T14:12:00;24.39;37.43
68844;DHT22;55850;51.244;6.824;2022-07-06T14:17:05;24.32;37.33
68844;DHT22;55850;51.244;6.824;2022-07-06T14:22:11;24.09;37.44
68844;DHT22;55850;51.244;6.824;2022-07-06T14:27:19;24.24;38.82
68844;DHT22;55850;51.244;6.824;2022-07-06T14:32:27;24.22;38.27
68844;DHT22;55850;51.244;6.824;2022-07-06T14:37:32;24.12;38.72
68844;DHT22;55850;51.244;6.824;2022-07-06T14:42:43;24.42;37.43
68844;DHT22;55850;51.244;6.824;2022-07-06T14:47:50;24.15;38.25
68844;DHT22;55850;51.244;6.824;2022-07-06T14:52:56;24.24;38.13
68844;DHT22;55850;51.244;6.824;2022-07-06T14:58:04;24.51;38.38
68844;DHT22;55850;51.244;6.824;2022-07-06T15:03:09;24.14;37.97
68844;DHT22;55850;51.244;6.824;2022-07-06T15:08:15;24.08;38.11
68844;DHT22;55850;51.244;6.824;2022-07-06T15:13:23;24.22;38.46
68844;DHT22;55850;51.244;6.824;2022-07-06T15:18:29;24.17;37.92
68844;DHT22;55850;51.244;6.824;2022-07-06T15:23:35;24.25;38.47
68844;DHT22;55850;51.244;6.824;2022-07-06T15:28:43;23.95;38.85
68844;DHT22;55850;51.244;6.824;2022-07-06T15:33:48;23.67;39.63
68844;DHT22;55850;51.244;6.824;2022-07-06T15:38:54;23.78;38.91
68844;DHT22;55850;51.244;6.824;2022-07-06T15:44:02;23.89;39.22
68844;DHT22;55850;51.244;6.824;2022-07-06T15:49:08;24.04;39.14
68844;DHT22;55850;51.244;6.824;2022-07-06T15:54:13;24.09;39.29
68844;DHT22;55850;51.244;6.824;2022-07-06T15:59:21;24.21;39.17
68844;DHT22;55850;51.244;6.824;2022-07-06T16:04:27;23.73;39.68
68844;DHT22;55850;51.244;6.824;2022-07-06T16:09:33;23.57;39.58
68844;DHT22;55850;51.244;6.824;2022-07-06T16:14:41;23.58;39.15
68844;DHT22;55850;51.244;6.824;2022-07-06T16:19:47;23.61;40.00
68844;DHT22;55850;51.244;6.824;2022-07-06T16:24:56;23.51;40.01
68844;DHT22;55850;51.244;6.824;2022-07-06T16:30:11;23.66;39.62
68844;DHT22;55850;51.244;6.824;2022-07-06T16:35:23;23.50;40.55
68844;DHT22;55850;51.244;6.824;2022-07-06T16:40:31;23.24;39.79
68844;DHT22;55850;51.244;6.824;2022-07-06T16:45:39;23.43;40.62
68844;DHT22;55850;51.244;6.824;2022-07-06T16:50:45;23.37;40.43
68844;DHT22;55850;51.244;6.824;2022-07-06T16:55:51;23.26;40.52
68844;DHT22;55850;51.244;6.824;2022-07-06T17:00:59;23.30;40.34
68844;DHT22;55850;51.244;6.824;2022-07-06T17:06:05;23.19;40.97
68844;DHT22;55850;51.244;6.824;2022-07-06T17:11:12;23.16;41.03
68844;DHT22;55850;51.244;6.824;2022-07-06T17:16:20;23.29;41.14
68844;DHT22;55850;51.244;6.824;2022-07-06T17:21:25;23.22;41.36
68844;DHT22;55850;51.244;6.824;2022-07-06T17:26:31;23.15;41.12
68844;DHT22;55850;51.244;6.824;2022-07-06T17:31:39;22.85;41.62
68844;DHT22;55850;51.244;6.824;2022-07-06T17:36:44;23.19;41.18
68844;DHT22;55850;51.244;6.824;2022-07-06T17:41:50;22.81;41.76
68844;DHT22;55850;51.244;6.824;2022-07-06T17:46:58;22.95;41.73
68844;DHT22;55850;51.244;6.824;2022-07-06T17:52:04;22.88;41.21
68844;DHT22;55850;51.244;6.824;2022-07-06T17:57:16;22.62;42.08
68844;DHT22;55850;51.244;6.824;2022-07-06T18:02:24;22.81;41.63
68844;DHT22;55850;51.244;6.824;2022-07-06T18:07:30;22.89;42.05
68844;DHT22;55850;51.244;6.824;2022-07-06T18:12:35;22.94;41.87
68844;DHT22;55850;51.244;6.824;2022-07-06T18:17:43;23.20;41.75
68844;DHT22;55850;51.244;6.824;2022-07-06T18:23:01;23.30;41.29
68844;DHT22;55850;51.244;6.824;2022-07-06T18:28:06;23.23;41.10
68844;DHT22;55850;51.244;6.824;2022-07-06T18:33:17;23.40;40.80
68844;DHT22;55850;51.244;6.824;2022-07-06T18:38:24;23.37;41.26
68844;DHT22;55850;51.244;6.824;2022-07-06T18:43:29;23.46;41.45
68844;DHT22;55850;51.244;6.824;2022-07-06T18:48:38;23.02;41.90
68844;DHT22;55850;51.244;6.824;2022-07-06T18:53:43;23.19;41.54
68844;DHT22;55850;51.244;6.824;2022-07-06T18:58:56;23.06;41.56
68844;DHT22;55850;51.244;6.824;2022-07-06T19:04:05;23.16;41.49
68844;DHT22;55850;51.244;6.824;2022-07-06T19:09:10;23.27;41.50
68844;DHT22;55850;51.244;6.824;2022-07-06T19:14:16;23.16;41.61
68844;DHT22;55850;51.244;6.824;2022-07-06T19:19:24;23.16;41.89
68844;DHT22;55850;51.244;6.824;2022-07-06T19:24:30;23.06;42.10
68844;DHT22;55850;51.244;6.824;2022-07-06T19:29:35;23.00;42.44
68844;DHT22;55850;51.244;6.824;2022-07-06T19:34:43;22.87;42.64
68844;DHT22;55850;51.244;6.824;2022-07-06T19:39:49;22.57;43.10
68844;DHT22;55850;51.244;6.824;2022-07-06T19:44:54;22.31;43.78
68844;DHT22;55850;51.244;6.824;2022-07-06T19:50:03;22.25;43.89
68844;DHT22;55850;51.244;6.824;2022-07-06T19:55:08;22.36;43.69
68844;DHT22;55850;51.244;6.824;2022-07-06T20:00:16;22.20;44.40
68844;DHT22;55850;51.244;6.824;2022-07-06T20:05:24;22.25;44.21
68844;DHT22;55850;51.244;6.824;2022-07-06T20:10:29;22.16;44.07
68844;DHT22;55850;51.244;6.824;2022-07-06T20:15:35;22.29;44.36
68844;DHT22;55850;51.244;6.824;2022-07-06T20:20:43;22.33;44.14
68844;DHT22;55850;51.244;6.824;2022-07-06T20:25:49;22.24;44.29
68844;DHT22;55850;51.244;6.824;2022-07-06T20:30:55;21.97;44.89
68844;DHT22;55850;51.244;6.824;2022-07-06T20:36:04;22.21;44.77
68844;DHT22;55850;51.244;6.824;2022-07-06T20:41:12;22.11;44.96
68844;DHT22;55850;51.244;6.824;2022-07-06T20:46:18;22.00;45.16
68844;DHT22;55850;51.244;6.824;2022-07-06T20:51:26;21.90;45.42
68844;DHT22;55850;51.244;6.824;2022-07-06T20:56:32;21.97;45.60
68844;DHT22;55850;51.244;6.824;2022-07-06T21:01:37;21.73;46.09
68844;DHT22;55850;51.244;6.824;2022-07-06T21:06:45;21.82;45.77
68844;DHT22;55850;51.244;6.824;2022-07-06T21:11:51;22.04;45.38
68844;DHT22;55850;51.244;6.824;2022-07-06T21:16:56;21.99;45.63
68844;DHT22;55850;51.244;6.824;2022-07-06T21:22:11;21.96;45.57
68844;DHT22;55850;51.244;6.824;2022-07-06T21:27:17;21.97;45.59
68844;DHT22;55850;51.244;6.824;2022-07-06T21:32:23;21.96;45.52
68844;DHT22;55850;51.244;6.824;2022-07-06T21:37:31;21.96;45.91
68844;DHT22;55850;51.244;6.824;2022-07-06T21:42:36;21.90;46.12
68844;DHT22;55850;51.244;6.824;2022-07-06T21:47:42;21.73;46.82
68844;DHT22;55850;51.244;6.824;2022-07-06T21:52:50;21.67;46.67
68844;DHT22;55850;51.244;6.824;2022-07-06T21:57:55;21.93;46.47
68844;DHT22;55850;51.244;6.824;2022-07-06T22:03:01;21.90;46.50
68844;DHT22;55850;51.244;6.824;2022-07-06T22:08:10;21.93;46.52
68844;DHT22;55850;51.244;6.824;2022-07-06T22:13:15;21.75;47.05
68844;DHT22;55850;51.244;6.824;2022-07-06T22:18:33;21.76;46.99
68844;DHT22;55850;51.244;6.824;2022-07-06T22:23:41;21.85;46.90
68844;DHT22;55850;51.244;6.824;2022-07-06T22:28:47;21.82;46.94
68844;DHT22;55850;51.244;6.824;2022-07-06T22:33:56;21.69;47.13
68844;DHT22;55850;51.244;6.824;2022-07-06T22:39:04;21.75;47.14
68844;DHT22;55850;51.244;6.824;2022-07-06T22:44:09;21.86;47.23
68844;DHT22;55850;51.244;6.824;2022-07-06T22:49:14;21.78;47.31
68844;DHT22;55850;51.244;6.824;2022-07-06T22:54:23;21.69;47.53
68844;DHT22;55850;51.244;6.824;2022-07-06T22:59:28;21.62;48.37
68844;DHT22;55850;51.244;6.824;2022-07-06T23:04:34;21.53;48.58
68844;DHT22;55850;51.244;6.824;2022-07-06T23:09:42;21.63;48.93
68844;DHT22;55850;51.244;6.824;2022-07-06T23:14:47;21.59;49.46
68844;DHT22;55850;51.244;6.824;2022-07-06T23:19:54;21.43;49.83
68844;DHT22;55850;51.244;6.824;2022-07-06T23:25:02;21.53;50.19
68844;DHT22;55850;51.244;6.824;2022-07-06T23:30:09;21.46;50.42
68844;DHT22;55850;51.244;6.824;2022-07-06T23:35:14;21.51;50.33
68844;DHT22;55850;51.244;6.824;2022-07-06T23:40:23;21.34;50.84
68844;DHT22;55850;51.244;6.824;2022-07-06T23:45:28;21.28;51.33
68844;DHT22;55850;51.244;6.824;2022-07-06T23:50:34;21.53;50.99
68844;DHT22;55850;51.244;6.824;2022-07-06T23:55:42;21.25;51.73
